Time;durP1;ratioP1;P1;durP2;ratioP2;P2;SDS_P1;SDS_P2;PMS_P1;PMS_P2;Temp;Humidity;BMP_temperature;BMP_pressure;BME280_temperature;BME280_humidity;BME280_pressure;Samples;Min_cycle;Max_cycle;Signal;HPM_P1;HPM_P2
2021/12/12 00:01:34;;;;;;;35.50;14.93;;;;;;;;;;4976872;28;20163;-59
2021/12/12 00:04:10;;;;;;;43.03;17.55;;;;;;;;;;4976475;28;20068;-60
2021/12/12 00:06:42;;;;;;;49.25;16.60;;;;;;;;;;4976048;28;20033;-60
2021/12/12 00:09:13;;;;;;;45.75;17.13;;;;;;;;;;4974142;28;20397;-59
2021/12/12 00:12:03;;;;;;;36.97;16.63;;;;;;;;;;4964558;28;20038;-60
2021/12/12 00:14:30;;;;;;;36.90;16.60;;;;;;;;;;4978754;28;20030;-61
2021/12/12 00:17:01;;;;;;;35.92;16.48;;;;;;;;;;4974366;28;20026;-60
2021/12/12 00:19:29;;;;;;;41.58;17.00;;;;;;;;;;4971529;28;20091;-59
2021/12/12 00:21:56;;;;;;;36.13;15.85;;;;;;;;;;4973467;28;20026;-60
2021/12/12 00:24:22;;;;;;;39.20;15.70;;;;;;;;;;4991011;28;20030;-59
2021/12/12 00:26:51;;;;;;;36.67;16.00;;;;;;;;;;4982170;28;20033;-60
2021/12/12 00:29:19;;;;;;;36.92;15.38;;;;;;;;;;4975014;28;20045;-59
2021/12/12 00:31:46;;;;;;;39.80;16.40;;;;;;;;;;4974627;28;20192;-60
2021/12/12 00:34:12;;;;;;;53.90;16.92;;;;;;;;;;4971564;28;20033;-59
2021/12/12 00:36:40;;;;;;;39.58;16.42;;;;;;;;;;4973247;28;20092;-59
2021/12/12 00:39:12;;;;;;;43.50;17.02;;;;;;;;;;4948672;28;20066;-59
2021/12/12 00:41:44;;;;;;;41.15;16.60;;;;;;;;;;4974340;28;20041;-59
2021/12/12 00:44:15;;;;;;;46.95;15.50;;;;;;;;;;4975317;28;20045;-59
2021/12/12 00:46:41;;;;;;;41.83;16.90;;;;;;;;;;4976320;28;20696;-59
2021/12/12 00:49:07;;;;;;;44.97;17.25;;;;;;;;;;4974051;28;22051;-59
2021/12/12 00:51:37;;;;;;;45.08;17.85;;;;;;;;;;4975460;28;20030;-60
2021/12/12 00:54:04;;;;;;;43.17;15.73;;;;;;;;;;4980069;28;20378;-58
2021/12/12 00:56:32;;;;;;;42.45;16.63;;;;;;;;;;4977416;28;20038;-60
2021/12/12 00:59:01;;;;;;;41.55;16.50;;;;;;;;;;4978834;28;20042;-60
2021/12/12 01:01:30;;;;;;;44.97;18.58;;;;;;;;;;4973983;28;20030;-60
2021/12/12 01:04:01;;;;;;;38.70;17.60;;;;;;;;;;4978389;28;21926;-59
2021/12/12 01:06:27;;;;;;;46.55;18.02;;;;;;;;;;4981586;28;20042;-59
2021/12/12 01:08:58;;;;;;;46.22;17.75;;;;;;;;;;4976785;28;20018;-59
2021/12/12 01:11:33;;;;;;;44.92;18.25;;;;;;;;;;4975641;28;20029;-59
2021/12/12 01:13:59;;;;;;;51.42;19.17;;;;;;;;;;4974559;28;20042;-59
2021/12/12 01:16:40;;;;;;;52.45;17.90;;;;;;;;;;4977498;28;20709;-59
2021/12/12 01:19:08;;;;;;;47.22;19.73;;;;;;;;;;4975119;28;20084;-59
2021/12/12 01:21:40;;;;;;;40.30;18.98;;;;;;;;;;4971988;28;20030;-59
2021/12/12 01:24:13;;;;;;;45.90;19.55;;;;;;;;;;4975935;28;20033;-59
2021/12/12 01:26:40;;;;;;;55.35;19.58;;;;;;;;;;4974665;28;20109;-58
2021/12/12 01:29:06;;;;;;;48.45;18.88;;;;;;;;;;4973828;28;20028;-58
2021/12/12 01:31:36;;;;;;;44.83;17.85;;;;;;;;;;4975075;28;20038;-58
2021/12/12 01:34:10;;;;;;;54.58;20.17;;;;;;;;;;4974855;28;20076;-58
2021/12/12 01:39:31;;;;;;;66.63;20.27;;;;;;;;;;4973654;28;20733;-59
2021/12/12 01:42:00;;;;;;;62.65;20.77;;;;;;;;;;4976437;28;20754;-59
2021/12/12 01:44:40;;;;;;;58.00;20.33;;;;;;;;;;4975764;28;20014;-59
2021/12/12 01:47:14;;;;;;;51.28;20.45;;;;;;;;;;4975501;28;20037;-58
2021/12/12 01:49:42;;;;;;;60.42;20.33;;;;;;;;;;4981949;28;20790;-59
2021/12/12 01:52:10;;;;;;;50.80;18.65;;;;;;;;;;4972645;28;20034;-59
2021/12/12 01:54:42;;;;;;;62.75;20.00;;;;;;;;;;4976354;28;20124;-59
2021/12/12 01:57:08;;;;;;;66.45;19.65;;;;;;;;;;4975002;28;20065;-59
2021/12/12 01:59:39;;;;;;;45.60;19.02;;;;;;;;;;4974669;28;20540;-60
2021/12/12 02:02:18;;;;;;;51.72;20.38;;;;;;;;;;4975201;28;20042;-59
2021/12/12 02:04:50;;;;;;;54.50;19.85;;;;;;;;;;4972316;28;20744;-60
2021/12/12 02:07:20;;;;;;;47.15;19.70;;;;;;;;;;4976841;28;20125;-59
2021/12/12 02:09:46;;;;;;;47.35;19.23;;;;;;;;;;4974160;28;20038;-59
2021/12/12 02:12:11;;;;;;;51.03;18.88;;;;;;;;;;4965188;28;20115;-58
2021/12/12 02:14:40;;;;;;;45.90;18.50;;;;;;;;;;4988662;28;20022;-58
2021/12/12 02:17:14;;;;;;;44.83;17.77;;;;;;;;;;4973509;28;20034;-59
2021/12/12 02:20:19;;;;;;;51.50;17.75;;;;;;;;;;4976848;28;20073;-59
2021/12/12 02:36:30;;;;;;;46.70;18.05;;;;;;;;;;4979257;28;20042;-59
2021/12/12 02:39:03;;;;;;;46.03;17.92;;;;;;;;;;4977653;28;22160;-59
2021/12/12 02:41:29;;;;;;;48.15;18.98;;;;;;;;;;4978884;28;20029;-58
2021/12/12 02:43:56;;;;;;;44.45;18.00;;;;;;;;;;4980146;28;20092;-59
2021/12/12 02:46:27;;;;;;;47.08;17.98;;;;;;;;;;4979575;28;20386;-60
2021/12/12 02:48:58;;;;;;;43.85;16.10;;;;;;;;;;4978569;28;20025;-59
2021/12/12 02:51:24;;;;;;;50.22;17.50;;;;;;;;;;4982683;28;20045;-58
2021/12/12 02:53:53;;;;;;;47.67;19.00;;;;;;;;;;4977944;28;20034;-59
2021/12/12 02:56:33;;;;;;;45.22;18.40;;;;;;;;;;4978379;28;20069;-59
2021/12/12 02:59:03;;;;;;;43.25;15.98;;;;;;;;;;4974687;28;20445;-59
2021/12/12 03:01:29;;;;;;;52.30;17.70;;;;;;;;;;4979890;28;20038;-58
2021/12/12 03:03:59;;;;;;;35.30;15.73;;;;;;;;;;4977822;28;20018;-57
2021/12/12 03:06:30;;;;;;;40.08;16.35;;;;;;;;;;4977183;28;20080;-59
2021/12/12 03:09:01;;;;;;;52.13;16.30;;;;;;;;;;4990746;28;20033;-59
2021/12/12 03:11:32;;;;;;;44.65;17.65;;;;;;;;;;4982100;28;20044;-59
2021/12/12 03:13:57;;;;;;;51.45;17.15;;;;;;;;;;4981637;28;20062;-59
2021/12/12 03:16:23;;;;;;;46.75;17.27;;;;;;;;;;4974308;28;20521;-60
2021/12/12 03:18:55;;;;;;;40.08;15.23;;;;;;;;;;4976432;28;20952;-57
2021/12/12 03:21:30;;;;;;;45.30;15.65;;;;;;;;;;4974623;28;20038;-58
2021/12/12 03:23:57;;;;;;;45.95;16.45;;;;;;;;;;4976144;28;20041;-58
2021/12/12 03:26:25;;;;;;;39.28;14.50;;;;;;;;;;4977639;28;20127;-59
2021/12/12 03:28:52;;;;;;;43.22;16.00;;;;;;;;;;4989409;28;20127;-58
2021/12/12 03:31:19;;;;;;;38.58;15.70;;;;;;;;;;4982571;28;20037;-58
2021/12/12 03:33:47;;;;;;;33.20;13.70;;;;;;;;;;4973812;28;20104;-61
2021/12/12 03:36:14;;;;;;;42.47;15.20;;;;;;;;;;4976900;28;20057;-60
2021/12/12 03:38:45;;;;;;;43.30;14.63;;;;;;;;;;4974256;28;20046;-59
2021/12/12 03:41:17;;;;;;;36.00;13.38;;;;;;;;;;4976231;28;20073;-59
2021/12/12 03:43:45;;;;;;;36.72;13.65;;;;;;;;;;4978023;28;20022;-58
2021/12/12 03:46:13;;;;;;;26.42;11.38;;;;;;;;;;4977189;28;20018;-57
2021/12/12 03:48:41;;;;;;;29.00;12.38;;;;;;;;;;4964006;28;20111;-59
2021/12/12 03:51:07;;;;;;;30.13;11.18;;;;;;;;;;4960373;28;20351;-59
2021/12/12 03:53:33;;;;;;;34.13;12.75;;;;;;;;;;4978680;28;21519;-58
2021/12/12 03:55:58;;;;;;;27.40;12.55;;;;;;;;;;4977139;28;20033;-59
2021/12/12 03:58:24;;;;;;;30.40;11.88;;;;;;;;;;4974722;28;20068;-58
2021/12/12 04:00:54;;;;;;;26.20;12.23;;;;;;;;;;4975087;28;20038;-58
2021/12/12 04:03:22;;;;;;;26.13;11.93;;;;;;;;;;4981107;28;20033;-59
2021/12/12 04:05:53;;;;;;;26.33;10.65;;;;;;;;;;4975631;28;20034;-59
2021/12/12 04:08:24;;;;;;;33.17;11.60;;;;;;;;;;4977782;28;20025;-59
2021/12/12 04:10:50;;;;;;;28.83;11.65;;;;;;;;;;4982538;28;20069;-58
2021/12/12 04:13:18;;;;;;;29.27;11.25;;;;;;;;;;4978926;28;21790;-59
2021/12/12 04:15:48;;;;;;;27.98;10.98;;;;;;;;;;4974310;28;20038;-61
2021/12/12 04:18:13;;;;;;;23.88;10.65;;;;;;;;;;4976659;28;20049;-58
2021/12/12 04:20:39;;;;;;;26.65;10.15;;;;;;;;;;4977633;28;21006;-58
2021/12/12 04:23:16;;;;;;;25.05;10.32;;;;;;;;;;4976361;28;20037;-58
2021/12/12 04:25:41;;;;;;;31.98;10.48;;;;;;;;;;4978458;28;20042;-58
2021/12/12 04:28:09;;;;;;;23.05;9.57;;;;;;;;;;4977010;28;20038;-58
2021/12/12 04:30:34;;;;;;;16.52;9.27;;;;;;;;;;4977152;28;20042;-58
2021/12/12 04:33:02;;;;;;;20.77;10.07;;;;;;;;;;4976459;28;20674;-58
2021/12/12 04:35:32;;;;;;;26.15;10.40;;;;;;;;;;4966662;28;20042;-59
2021/12/12 04:37:59;;;;;;;25.63;10.55;;;;;;;;;;4975956;28;20084;-57
2021/12/12 04:40:28;;;;;;;17.42;9.43;;;;;;;;;;4976698;28;20462;-60
2021/12/12 04:42:56;;;;;;;20.20;10.15;;;;;;;;;;4976869;28;20715;-58
2021/12/12 04:45:30;;;;;;;19.85;8.98;;;;;;;;;;4976698;28;20061;-58
2021/12/12 04:51:00;;;;;;;14.43;8.75;;;;;;;;;;4975515;28;20034;-60
2021/12/12 04:53:36;;;;;;;22.25;9.95;;;;;;;;;;4976108;28;20038;-59
2021/12/12 04:56:01;;;;;;;18.55;9.20;;;;;;;;;;4959908;28;20034;-59
2021/12/12 04:58:32;;;;;;;17.13;8.88;;;;;;;;;;4991092;28;20383;-59
2021/12/12 05:01:04;;;;;;;18.05;8.65;;;;;;;;;;4975233;28;20062;-60
2021/12/12 05:03:33;;;;;;;17.63;8.65;;;;;;;;;;4974768;28;20762;-59
2021/12/12 05:06:06;;;;;;;19.38;8.77;;;;;;;;;;4976977;28;20050;-58
2021/12/12 05:08:40;;;;;;;18.08;9.18;;;;;;;;;;4975076;28;20037;-59
2021/12/12 05:11:08;;;;;;;14.98;8.40;;;;;;;;;;4990075;28;20044;-58
2021/12/12 05:13:59;;;;;;;14.85;7.28;;;;;;;;;;4977226;28;20054;-58
2021/12/12 05:16:27;;;;;;;12.90;7.40;;;;;;;;;;4972248;28;20165;-59
2021/12/12 05:19:04;;;;;;;16.10;7.18;;;;;;;;;;4977583;28;20034;-59
2021/12/12 05:21:34;;;;;;;15.90;7.67;;;;;;;;;;4974526;28;20049;-59
2021/12/12 05:24:04;;;;;;;15.80;7.47;;;;;;;;;;4975734;28;20022;-58
2021/12/12 05:26:36;;;;;;;13.68;7.85;;;;;;;;;;4973047;28;20061;-59
2021/12/12 05:29:09;;;;;;;14.52;7.05;;;;;;;;;;4975425;28;20405;-58
2021/12/12 05:31:37;;;;;;;16.08;8.07;;;;;;;;;;4975092;28;20031;-59
2021/12/12 05:34:06;;;;;;;14.10;7.65;;;;;;;;;;4975874;28;20046;-59
2021/12/12 05:36:33;;;;;;;13.32;7.85;;;;;;;;;;4975410;28;20186;-59
2021/12/12 05:39:00;;;;;;;17.63;7.47;;;;;;;;;;4981144;28;20054;-59
2021/12/12 05:41:28;;;;;;;12.13;7.20;;;;;;;;;;4975398;28;20034;-58
2021/12/12 05:43:55;;;;;;;16.35;7.75;;;;;;;;;;4963111;28;20084;-61
2021/12/12 05:46:21;;;;;;;14.05;7.43;;;;;;;;;;4976509;28;20062;-59
2021/12/12 05:48:49;;;;;;;13.55;7.18;;;;;;;;;;4973290;28;20028;-58
2021/12/12 05:51:20;;;;;;;10.75;6.80;;;;;;;;;;4982129;28;20180;-58
2021/12/12 05:53:48;;;;;;;16.05;7.53;;;;;;;;;;4991733;28;20195;-59
2021/12/12 05:56:15;;;;;;;10.52;7.30;;;;;;;;;;4978593;28;20026;-58
2021/12/12 05:58:43;;;;;;;14.95;7.82;;;;;;;;;;4984975;28;20046;-56
2021/12/12 06:01:11;;;;;;;16.17;7.28;;;;;;;;;;4979276;28;20038;-59
2021/12/12 06:03:39;;;;;;;17.55;7.43;;;;;;;;;;4980522;28;20041;-59
2021/12/12 06:06:06;;;;;;;18.52;8.90;;;;;;;;;;4980882;28;20030;-59
2021/12/12 06:08:31;;;;;;;11.90;7.68;;;;;;;;;;4979140;28;20068;-60
2021/12/12 06:10:58;;;;;;;18.42;8.70;;;;;;;;;;4979268;28;20112;-60
2021/12/12 06:13:24;;;;;;;17.13;7.85;;;;;;;;;;4978012;28;20034;-59
2021/12/12 06:15:51;;;;;;;15.32;9.20;;;;;;;;;;4979916;28;20089;-59
2021/12/12 06:18:20;;;;;;;16.77;8.35;;;;;;;;;;4982309;28;20157;-59
2021/12/12 06:20:46;;;;;;;22.98;8.60;;;;;;;;;;4982831;28;20038;-58
2021/12/12 06:23:15;;;;;;;15.23;7.95;;;;;;;;;;4983747;28;20028;-59
2021/12/12 06:25:43;;;;;;;16.33;7.82;;;;;;;;;;4983572;28;20034;-58
2021/12/12 06:28:10;;;;;;;13.18;7.97;;;;;;;;;;4980145;28;20049;-60
2021/12/12 06:30:36;;;;;;;12.55;7.55;;;;;;;;;;4979564;28;20053;-59
2021/12/12 06:33:04;;;;;;;14.15;7.93;;;;;;;;;;4981989;28;20034;-58
2021/12/12 06:35:34;;;;;;;11.20;7.28;;;;;;;;;;4981820;28;20754;-58
2021/12/12 06:38:04;;;;;;;13.73;7.55;;;;;;;;;;4981453;28;20054;-59
2021/12/12 06:40:29;;;;;;;14.32;7.57;;;;;;;;;;4981255;28;20030;-59
2021/12/12 06:42:55;;;;;;;17.77;7.70;;;;;;;;;;4978308;28;20544;-59
2021/12/12 06:45:23;;;;;;;13.85;7.70;;;;;;;;;;4980315;28;20030;-61
2021/12/12 06:47:50;;;;;;;16.15;7.65;;;;;;;;;;4978571;28;20030;-60
2021/12/12 06:50:16;;;;;;;14.40;7.80;;;;;;;;;;4984542;28;20508;-59
2021/12/12 06:52:45;;;;;;;12.13;7.40;;;;;;;;;;4980347;28;20034;-60
2021/12/12 06:55:16;;;;;;;17.15;9.13;;;;;;;;;;4980369;28;20173;-59
2021/12/12 06:57:46;;;;;;;15.85;8.30;;;;;;;;;;4968891;28;20031;-60
2021/12/12 07:00:14;;;;;;;15.18;8.93;;;;;;;;;;4978917;28;20137;-59
2021/12/12 07:02:41;;;;;;;13.50;8.10;;;;;;;;;;4980811;28;20139;-59
2021/12/12 07:05:08;;;;;;;15.23;7.40;;;;;;;;;;4981077;28;20085;-59
2021/12/12 07:07:36;;;;;;;17.17;7.75;;;;;;;;;;4982108;28;20040;-60
2021/12/12 07:10:07;;;;;;;20.42;8.07;;;;;;;;;;4979016;28;20386;-60
2021/12/12 07:12:33;;;;;;;19.05;8.73;;;;;;;;;;4977399;28;20038;-58
2021/12/12 07:14:58;;;;;;;18.27;9.15;;;;;;;;;;4979745;28;21080;-58
2021/12/12 07:17:24;;;;;;;14.68;8.00;;;;;;;;;;4976131;28;20470;-58
2021/12/12 07:19:53;;;;;;;17.45;8.00;;;;;;;;;;4975508;28;20096;-60
2021/12/12 07:22:27;;;;;;;16.48;8.98;;;;;;;;;;4978130;28;20042;-60
2021/12/12 07:24:55;;;;;;;16.00;8.07;;;;;;;;;;4985842;28;20029;-59
2021/12/12 07:27:20;;;;;;;16.88;8.57;;;;;;;;;;4974697;28;20041;-59
2021/12/12 07:29:49;;;;;;;15.82;8.48;;;;;;;;;;4976765;28;20135;-59
2021/12/12 07:32:17;;;;;;;19.35;9.45;;;;;;;;;;4978103;28;20039;-60
2021/12/12 07:34:45;;;;;;;18.35;9.60;;;;;;;;;;4977377;28;20940;-58
2021/12/12 07:37:13;;;;;;;20.83;8.70;;;;;;;;;;4984554;28;20053;-59
2021/12/12 07:39:42;;;;;;;17.15;9.73;;;;;;;;;;4976047;28;20461;-59
2021/12/12 07:42:11;;;;;;;15.27;8.30;;;;;;;;;;4978128;28;20088;-60
2021/12/12 07:44:40;;;;;;;15.00;8.57;;;;;;;;;;4976420;28;20080;-59
2021/12/12 07:47:08;;;;;;;18.13;9.27;;;;;;;;;;4976726;28;20353;-60
2021/12/12 07:49:53;;;;;;;18.52;9.60;;;;;;;;;;4980361;28;20033;-59
2021/12/12 07:52:20;;;;;;;17.88;8.68;;;;;;;;;;4979240;28;20084;-59
2021/12/12 07:54:51;;;;;;;19.48;8.15;;;;;;;;;;4989783;28;20026;-60
2021/12/12 07:57:18;;;;;;;20.50;9.73;;;;;;;;;;4975706;28;20101;-59
2021/12/12 07:59:45;;;;;;;21.90;11.18;;;;;;;;;;4975696;28;20050;-60
2021/12/12 08:02:12;;;;;;;23.98;11.65;;;;;;;;;;4984578;28;20114;-60
2021/12/12 08:04:38;;;;;;;22.05;10.88;;;;;;;;;;4976382;28;20041;-60
2021/12/12 08:07:08;;;;;;;30.05;13.23;;;;;;;;;;4976651;28;20054;-60
2021/12/12 08:09:35;;;;;;;27.52;12.45;;;;;;;;;;4974620;28;20086;-59
2021/12/12 08:12:00;;;;;;;22.70;11.40;;;;;;;;;;4991959;28;20030;-60
2021/12/12 08:14:28;;;;;;;19.38;9.57;;;;;;;;;;4973555;28;20113;-58
2021/12/12 08:16:55;;;;;;;18.50;9.88;;;;;;;;;;4989702;28;20043;-59
2021/12/12 08:19:24;;;;;;;22.52;10.25;;;;;;;;;;4977391;28;20096;-59
2021/12/12 08:25:28;;;;;;;26.52;10.80;;;;;;;;;;4975717;28;20112;-60
2021/12/12 08:27:58;;;;;;;22.10;10.20;;;;;;;;;;4974364;28;20131;-58
2021/12/12 08:30:31;;;;;;;21.30;9.80;;;;;;;;;;4979626;28;20042;-60
2021/12/12 08:32:57;;;;;;;23.55;11.05;;;;;;;;;;4974439;28;20038;-60
2021/12/12 08:35:23;;;;;;;21.13;10.80;;;;;;;;;;4990699;28;20029;-60
2021/12/12 08:37:49;;;;;;;24.05;10.27;;;;;;;;;;4982514;28;20053;-58
2021/12/12 08:40:20;;;;;;;21.52;10.93;;;;;;;;;;4974535;28;20038;-58
2021/12/12 08:42:55;;;;;;;26.77;13.68;;;;;;;;;;4974169;28;20113;-59
2021/12/12 08:45:24;;;;;;;20.52;11.77;;;;;;;;;;4964580;28;20390;-59
2021/12/12 08:47:50;;;;;;;25.95;13.27;;;;;;;;;;4975132;28;22217;-59
2021/12/12 08:50:22;;;;;;;27.73;13.65;;;;;;;;;;4990960;28;20085;-60
2021/12/12 08:52:48;;;;;;;31.25;13.13;;;;;;;;;;4977231;28;20030;-58
2021/12/12 08:55:19;;;;;;;23.35;11.32;;;;;;;;;;4974244;28;20029;-59
2021/12/12 09:01:25;;;;;;;27.23;10.70;;;;;;;;;;4973791;28;20893;-58
2021/12/12 09:04:00;;;;;;;24.83;11.43;;;;;;;;;;4974791;28;20057;-59
2021/12/12 09:06:27;;;;;;;26.25;10.75;;;;;;;;;;4980999;28;20081;-59
2021/12/12 09:08:55;;;;;;;29.42;12.77;;;;;;;;;;4974652;28;20061;-59
2021/12/12 09:11:27;;;;;;;27.75;12.65;;;;;;;;;;4973177;28;20034;-59
2021/12/12 09:14:06;;;;;;;27.85;13.10;;;;;;;;;;4971358;28;20034;-59
2021/12/12 09:16:34;;;;;;;28.27;13.25;;;;;;;;;;4988403;28;20038;-59
2021/12/12 09:19:02;;;;;;;35.30;14.55;;;;;;;;;;4974971;28;20042;-58
2021/12/12 09:21:50;;;;;;;34.08;13.50;;;;;;;;;;4973117;28;20046;-58
2021/12/12 09:24:24;;;;;;;29.90;13.65;;;;;;;;;;4992297;28;20030;-58
2021/12/12 09:26:53;;;;;;;33.55;16.17;;;;;;;;;;4987650;28;20496;-58
2021/12/12 09:29:19;;;;;;;34.67;15.38;;;;;;;;;;4972089;28;20030;-59
2021/12/12 09:31:49;;;;;;;32.28;12.82;;;;;;;;;;4982321;28;20042;-59
2021/12/12 09:34:18;;;;;;;31.85;13.52;;;;;;;;;;4974061;28;20033;-58
2021/12/12 09:36:47;;;;;;;44.92;15.23;;;;;;;;;;4979831;28;20041;-60
2021/12/12 09:39:14;;;;;;;30.15;13.30;;;;;;;;;;4971718;28;20166;-58
2021/12/12 09:41:45;;;;;;;32.63;16.02;;;;;;;;;;4974178;28;20104;-60
2021/12/12 09:44:30;;;;;;;32.47;15.05;;;;;;;;;;4975444;28;20033;-59
2021/12/12 09:47:46;;;;;;;32.13;13.15;;;;;;;;;;4971846;28;20053;-58
2021/12/12 09:53:32;;;;;;;33.00;13.57;;;;;;;;;;4975343;28;20030;-59
2021/12/12 09:56:05;;;;;;;33.58;14.38;;;;;;;;;;4984239;28;20038;-59
2021/12/12 09:58:41;;;;;;;35.00;14.77;;;;;;;;;;4973294;28;20034;-59
2021/12/12 10:01:10;;;;;;;39.70;16.27;;;;;;;;;;4971320;28;20076;-59
2021/12/12 10:04:04;;;;;;;45.10;16.63;;;;;;;;;;4970984;28;20026;-59
2021/12/12 10:06:33;;;;;;;42.70;15.55;;;;;;;;;;4971020;28;20050;-59
2021/12/12 10:09:03;;;;;;;42.25;14.70;;;;;;;;;;4975449;28;20598;-58
2021/12/12 10:11:39;;;;;;;36.58;14.05;;;;;;;;;;4972775;28;20049;-58
2021/12/12 10:14:13;;;;;;;38.15;13.65;;;;;;;;;;4973200;28;20038;-59
2021/12/12 10:16:46;;;;;;;33.00;12.45;;;;;;;;;;4975541;28;20627;-58
2021/12/12 10:19:25;;;;;;;38.17;14.43;;;;;;;;;;4986198;28;20045;-58
2021/12/12 10:22:05;;;;;;;38.33;15.05;;;;;;;;;;4973341;28;20035;-58
2021/12/12 10:24:35;;;;;;;34.22;13.65;;;;;;;;;;4969042;28;20030;-58
2021/12/12 10:27:22;;;;;;;30.30;12.35;;;;;;;;;;4969252;28;20061;-58
2021/12/12 10:30:04;;;;;;;32.15;13.43;;;;;;;;;;4965776;28;20686;-58
2021/12/12 10:32:37;;;;;;;32.53;12.60;;;;;;;;;;4978552;28;20033;-58
2021/12/12 10:35:07;;;;;;;35.80;12.40;;;;;;;;;;4972573;28;20088;-58
2021/12/12 10:37:35;;;;;;;32.97;11.55;;;;;;;;;;4977697;28;20449;-58
2021/12/12 10:40:14;;;;;;;30.63;10.95;;;;;;;;;;4989963;28;20037;-58
2021/12/12 10:42:45;;;;;;;23.75;10.88;;;;;;;;;;4976374;28;20529;-59
2021/12/12 10:45:17;;;;;;;28.55;11.00;;;;;;;;;;4977455;28;20042;-59
2021/12/12 10:48:01;;;;;;;26.10;11.55;;;;;;;;;;4978375;28;20031;-59
2021/12/12 10:50:48;;;;;;;23.77;9.80;;;;;;;;;;4977359;28;20039;-59
2021/12/12 10:53:27;;;;;;;29.43;10.07;;;;;;;;;;4978453;28;20034;-58
2021/12/12 10:56:12;;;;;;;29.67;11.82;;;;;;;;;;4983382;28;20120;-59
2021/12/12 10:58:43;;;;;;;21.65;9.25;;;;;;;;;;4980522;28;20030;-59
2021/12/12 11:01:11;;;;;;;22.88;10.70;;;;;;;;;;4977712;28;20037;-60
2021/12/12 11:03:39;;;;;;;23.70;10.13;;;;;;;;;;4975579;28;20761;-59
2021/12/12 11:06:20;;;;;;;23.20;10.63;;;;;;;;;;4966532;28;20029;-60
2021/12/12 11:09:06;;;;;;;21.27;9.45;;;;;;;;;;4976694;28;20065;-59
2021/12/12 11:11:42;;;;;;;26.58;10.27;;;;;;;;;;4983146;28;20133;-59
2021/12/12 11:14:14;;;;;;;24.25;10.15;;;;;;;;;;4975878;28;20045;-58
2021/12/12 11:16:52;;;;;;;20.63;9.75;;;;;;;;;;4974645;28;20089;-59
2021/12/12 11:19:28;;;;;;;17.45;9.18;;;;;;;;;;4980281;28;20030;-60
2021/12/12 11:22:03;;;;;;;21.00;9.88;;;;;;;;;;4977894;28;20037;-58
2021/12/12 11:24:35;;;;;;;18.42;8.82;;;;;;;;;;4976267;28;20045;-58
2021/12/12 11:27:08;;;;;;;22.10;8.65;;;;;;;;;;4972534;28;20085;-58
2021/12/12 11:29:41;;;;;;;17.55;7.93;;;;;;;;;;4975127;28;20840;-58
2021/12/12 11:32:09;;;;;;;19.70;7.57;;;;;;;;;;4973939;28;20042;-58
2021/12/12 11:34:45;;;;;;;18.77;8.60;;;;;;;;;;4971778;28;20680;-59
2021/12/12 11:37:37;;;;;;;17.70;7.75;;;;;;;;;;4988892;28;20034;-59
2021/12/12 11:40:11;;;;;;;15.20;7.80;;;;;;;;;;4979023;28;20053;-59
2021/12/12 11:42:44;;;;;;;15.15;7.60;;;;;;;;;;4975603;28;20572;-58
2021/12/12 11:45:21;;;;;;;13.60;7.68;;;;;;;;;;4975664;28;20077;-57
2021/12/12 11:47:57;;;;;;;14.52;7.93;;;;;;;;;;4989854;28;20034;-58
2021/12/12 11:50:41;;;;;;;13.55;7.50;;;;;;;;;;4991131;28;20037;-58
2021/12/12 11:53:32;;;;;;;17.98;7.50;;;;;;;;;;4977994;28;20042;-57
2021/12/12 11:56:01;;;;;;;21.33;7.72;;;;;;;;;;4957247;28;20038;-58
2021/12/12 11:58:38;;;;;;;14.68;7.22;;;;;;;;;;4975234;28;20026;-58
2021/12/12 12:01:09;;;;;;;13.38;7.05;;;;;;;;;;4976499;28;20038;-58
2021/12/12 12:03:56;;;;;;;16.17;7.15;;;;;;;;;;4977837;28;20046;-58
2021/12/12 12:06:40;;;;;;;15.02;6.85;;;;;;;;;;4975388;28;20030;-58
2021/12/12 12:09:19;;;;;;;12.77;6.78;;;;;;;;;;4974950;28;20312;-57
2021/12/12 12:12:00;;;;;;;12.05;6.03;;;;;;;;;;4973466;28;20153;-57
2021/12/12 12:14:34;;;;;;;12.60;6.72;;;;;;;;;;4976119;28;20129;-58
2021/12/12 12:17:22;;;;;;;15.77;6.60;;;;;;;;;;4974060;28;20037;-58
2021/12/12 12:20:07;;;;;;;16.88;6.60;;;;;;;;;;4973080;28;20618;-59
2021/12/12 12:22:47;;;;;;;11.95;6.20;;;;;;;;;;4973257;28;20080;-58
2021/12/12 12:25:24;;;;;;;13.98;6.93;;;;;;;;;;4974226;28;20493;-59
2021/12/12 12:27:51;;;;;;;11.43;6.78;;;;;;;;;;4990639;28;20100;-57
2021/12/12 12:30:35;;;;;;;15.07;7.03;;;;;;;;;;4974189;28;20018;-58
2021/12/12 12:33:16;;;;;;;13.50;6.77;;;;;;;;;;4977700;28;20042;-59
2021/12/12 12:35:47;;;;;;;13.18;6.80;;;;;;;;;;4974725;28;20033;-59
2021/12/12 12:38:31;;;;;;;15.20;7.45;;;;;;;;;;4977494;28;20117;-58
2021/12/12 12:41:16;;;;;;;16.73;6.85;;;;;;;;;;4975402;28;20054;-58
2021/12/12 12:43:59;;;;;;;13.63;7.23;;;;;;;;;;4977346;28;20109;-58
2021/12/12 12:46:37;;;;;;;12.95;6.07;;;;;;;;;;4973808;28;20392;-58
2021/12/12 12:49:09;;;;;;;12.93;6.72;;;;;;;;;;4975086;28;20100;-59
2021/12/12 12:51:52;;;;;;;15.27;7.30;;;;;;;;;;4974213;28;20104;-57
2021/12/12 12:54:43;;;;;;;15.13;6.43;;;;;;;;;;4974212;28;20109;-60
2021/12/12 12:57:22;;;;;;;17.17;7.22;;;;;;;;;;4975421;28;20065;-58
2021/12/12 13:00:12;;;;;;;15.23;6.93;;;;;;;;;;4974765;28;20030;-58
2021/12/12 13:03:05;;;;;;;13.38;6.68;;;;;;;;;;4973150;28;20050;-59
2021/12/12 13:05:53;;;;;;;15.80;6.25;;;;;;;;;;4974053;28;20026;-59
2021/12/12 13:08:37;;;;;;;13.75;6.57;;;;;;;;;;4975369;28;21366;-58
2021/12/12 13:11:09;;;;;;;14.32;6.70;;;;;;;;;;4977841;28;20490;-58
2021/12/12 13:13:49;;;;;;;14.15;6.53;;;;;;;;;;4978444;28;20443;-57
2021/12/12 13:16:25;;;;;;;11.95;5.68;;;;;;;;;;4974727;28;20070;-60
2021/12/12 13:19:05;;;;;;;11.93;5.50;;;;;;;;;;4971969;28;20042;-58
2021/12/12 13:21:38;;;;;;;12.60;6.32;;;;;;;;;;4985494;28;20037;-59
2021/12/12 13:24:06;;;;;;;11.45;5.82;;;;;;;;;;4976783;28;20030;-59
2021/12/12 13:26:54;;;;;;;14.88;6.38;;;;;;;;;;4975339;28;20022;-59
2021/12/12 13:29:36;;;;;;;12.73;6.72;;;;;;;;;;4974386;28;20034;-60
2021/12/12 13:32:17;;;;;;;13.15;5.88;;;;;;;;;;4973535;28;20037;-59
2021/12/12 13:34:45;;;;;;;16.38;6.10;;;;;;;;;;4971279;28;20453;-58
2021/12/12 13:37:34;;;;;;;11.85;6.05;;;;;;;;;;4959043;28;20022;-59
2021/12/12 13:40:34;;;;;;;9.85;5.07;;;;;;;;;;4990660;28;20046;-58
2021/12/12 13:46:56;;;;;;;10.25;5.60;;;;;;;;;;4951575;28;20084;-58
2021/12/12 13:49:27;;;;;;;12.98;6.05;;;;;;;;;;4974208;28;20390;-58
2021/12/12 13:51:59;;;;;;;8.35;4.55;;;;;;;;;;4970726;28;20125;-58
2021/12/12 13:54:33;;;;;;;8.35;5.35;;;;;;;;;;4975806;28;20033;-59
2021/12/12 13:57:07;;;;;;;7.75;4.40;;;;;;;;;;4975474;28;21033;-60
2021/12/12 13:59:35;;;;;;;8.43;5.05;;;;;;;;;;4974855;28;20038;-59
2021/12/12 14:02:07;;;;;;;8.32;4.38;;;;;;;;;;4974530;28;20751;-58
2021/12/12 14:04:54;;;;;;;9.63;5.03;;;;;;;;;;4975148;28;20033;-59
2021/12/12 14:07:38;;;;;;;8.02;4.38;;;;;;;;;;4970879;28;20577;-57
2021/12/12 14:10:14;;;;;;;12.30;5.43;;;;;;;;;;4988925;28;20030;-58
2021/12/12 14:12:44;;;;;;;7.30;4.70;;;;;;;;;;4986421;28;20038;-58
2021/12/12 14:15:24;;;;;;;8.50;4.65;;;;;;;;;;4973235;28;20026;-59
2021/12/12 14:17:52;;;;;;;9.30;5.03;;;;;;;;;;4977812;28;20042;-59
2021/12/12 14:20:20;;;;;;;7.38;4.55;;;;;;;;;;4975348;28;20488;-59
2021/12/12 14:22:51;;;;;;;9.68;5.07;;;;;;;;;;4976497;28;20638;-58
2021/12/12 14:25:18;;;;;;;7.45;4.65;;;;;;;;;;4993358;28;20034;-58
2021/12/12 14:27:47;;;;;;;8.00;4.65;;;;;;;;;;4973596;28;20049;-59
2021/12/12 14:30:14;;;;;;;8.13;4.43;;;;;;;;;;4975600;28;20042;-59
2021/12/12 14:32:45;;;;;;;8.60;4.68;;;;;;;;;;4977008;28;20124;-58
2021/12/12 14:35:20;;;;;;;7.53;4.35;;;;;;;;;;4975117;28;20949;-58
2021/12/12 14:37:50;;;;;;;8.40;4.70;;;;;;;;;;4983883;28;20334;-57
2021/12/12 14:40:18;;;;;;;11.10;5.78;;;;;;;;;;4973963;28;20768;-60
2021/12/12 14:42:46;;;;;;;10.45;4.82;;;;;;;;;;4977012;28;20023;-58
2021/12/12 14:45:19;;;;;;;12.05;5.20;;;;;;;;;;4975100;28;20022;-58
2021/12/12 14:47:51;;;;;;;33.05;10.90;;;;;;;;;;4978152;28;20034;-58
2021/12/12 14:50:21;;;;;;;26.27;7.70;;;;;;;;;;4976389;28;20121;-60
2021/12/12 14:52:53;;;;;;;14.68;5.72;;;;;;;;;;4977854;28;20037;-58
2021/12/12 14:55:21;;;;;;;9.60;4.32;;;;;;;;;;4977954;28;20048;-58
2021/12/12 14:57:55;;;;;;;10.90;4.88;;;;;;;;;;4973507;28;20038;-58
2021/12/12 15:00:49;;;;;;;8.55;4.78;;;;;;;;;;4977120;28;20045;-56
2021/12/12 15:03:19;;;;;;;10.88;4.43;;;;;;;;;;4977367;28;20030;-58
2021/12/12 15:05:48;;;;;;;10.43;4.65;;;;;;;;;;4971810;28;20034;-57
2021/12/12 15:08:19;;;;;;;9.77;4.95;;;;;;;;;;4974057;28;20034;-59
2021/12/12 15:10:58;;;;;;;9.07;4.82;;;;;;;;;;4989666;28;20541;-57
2021/12/12 15:13:26;;;;;;;8.30;4.80;;;;;;;;;;4957803;28;20099;-57
2021/12/12 15:16:05;;;;;;;8.27;4.35;;;;;;;;;;4990660;28;20040;-58
2021/12/12 15:18:39;;;;;;;9.57;5.28;;;;;;;;;;4974850;28;20038;-58
2021/12/12 15:21:09;;;;;;;12.48;5.85;;;;;;;;;;4960708;28;20478;-59
2021/12/12 15:23:37;;;;;;;9.45;4.93;;;;;;;;;;4973080;28;20042;-57
2021/12/12 15:26:09;;;;;;;15.05;5.72;;;;;;;;;;4977831;28;20429;-58